createdAt,value
2023-05-21T00:02:23.154Z,100499.78
2023-05-21T00:04:51.549Z,100489.06
2023-05-21T00:07:19.083Z,100488.06
2023-05-21T00:09:46.463Z,100479.13
2023-05-21T00:12:13.873Z,100491.63
2023-05-21T00:14:41.204Z,100485.38
2023-05-21T00:17:08.593Z,100476.34
2023-05-21T00:19:36.028Z,100474.00
2023-05-21T00:22:03.792Z,100475.81
2023-05-21T00:24:31.451Z,100476.44
2023-05-21T00:26:59.394Z,100473.13
2023-05-21T00:29:27.807Z,100473.47
2023-05-21T00:31:55.942Z,100472.44
2023-05-21T00:34:23.459Z,100452.66
2023-05-21T00:36:52.593Z,100461.50
2023-05-21T00:39:19.943Z,100454.50
2023-05-21T00:41:48.772Z,100453.72
2023-05-21T00:44:18.384Z,100449.19
2023-05-21T00:46:48.927Z,100445.38
2023-05-21T00:49:17.060Z,100441.28
2023-05-21T00:51:45.303Z,100444.78
2023-05-21T00:54:12.952Z,100445.47
2023-05-21T00:56:40.518Z,100447.13
2023-05-21T00:59:08.298Z,100448.06
2023-05-21T01:01:37.066Z,100436.53
2023-05-21T01:04:05.210Z,100445.06
2023-05-21T01:06:34.827Z,100439.50
2023-05-21T01:09:05.500Z,100427.97
2023-05-21T01:11:43.762Z,100437.09
2023-05-21T01:14:12.791Z,100429.06
2023-05-21T01:16:42.860Z,100428.94
2023-05-21T01:19:19.174Z,100447.56
2023-05-21T01:21:50.933Z,100431.00
2023-05-21T01:24:19.428Z,100428.84
2023-05-21T01:26:46.950Z,100430.56
2023-05-21T01:29:14.871Z,100440.28
2023-05-21T01:32:05.843Z,100430.75
2023-05-21T01:34:45.240Z,100435.00
2023-05-21T01:37:12.589Z,100434.22
2023-05-21T01:39:46.943Z,100442.47
2023-05-21T01:42:16.867Z,100429.06
2023-05-21T01:44:47.070Z,100424.06
2023-05-21T01:47:16.134Z,100426.56
2023-05-21T01:49:43.719Z,100427.97
2023-05-21T01:52:12.961Z,100433.78
2023-05-21T01:54:40.467Z,100431.00
2023-05-21T01:57:07.882Z,100421.00
2023-05-21T01:59:36.494Z,100422.69
2023-05-21T02:02:03.957Z,100434.44
2023-05-21T02:04:31.666Z,100423.78
2023-05-21T02:06:59.091Z,100414.88
2023-05-21T02:09:26.604Z,100410.84
2023-05-21T02:11:54.290Z,100416.13
2023-05-21T02:14:21.772Z,100412.41
2023-05-21T02:16:49.176Z,100407.91
2023-05-21T02:19:16.582Z,100419.59
2023-05-21T02:21:44.147Z,100409.81
2023-05-21T02:24:12.327Z,100411.63
2023-05-21T02:26:39.709Z,100414.31
2023-05-21T02:29:07.069Z,100409.72
2023-05-21T02:31:34.485Z,100404.63
2023-05-21T02:34:02.150Z,100402.63
2023-05-21T02:36:33.242Z,100397.31
2023-05-21T02:39:01.763Z,100400.34
2023-05-21T02:41:29.295Z,100396.69
2023-05-21T02:43:56.623Z,100395.91
2023-05-21T02:46:24.187Z,100389.00
2023-05-21T02:48:53.163Z,100384.63
2023-05-21T02:51:20.605Z,100382.50
2023-05-21T02:53:48.464Z,100385.94
2023-05-21T02:56:15.890Z,100373.19
2023-05-21T02:58:43.320Z,100379.53
2023-05-21T03:01:10.870Z,100371.28
2023-05-21T03:03:38.827Z,100385.50
2023-05-21T03:06:10.058Z,100376.56
2023-05-21T03:08:37.762Z,100373.66
2023-05-21T03:11:10.366Z,100369.38
2023-05-21T03:13:38.025Z,100363.81
2023-05-21T03:16:05.807Z,100376.75
2023-05-21T03:18:33.209Z,100378.38
2023-05-21T03:21:01.134Z,100378.47
2023-05-21T03:23:28.795Z,100374.56
2023-05-21T03:25:56.231Z,100368.31
2023-05-21T03:28:23.575Z,100374.25
2023-05-21T03:30:52.074Z,100380.28
2023-05-21T03:33:37.939Z,100364.88
2023-05-21T03:36:34.800Z,100355.22
2023-05-21T03:39:04.588Z,100362.19
2023-05-21T03:41:34.283Z,100362.88
2023-05-21T03:44:08.689Z,100364.81
2023-05-21T03:46:50.554Z,100368.09
2023-05-21T03:49:27.025Z,100362.88
2023-05-21T03:51:56.958Z,100361.91
2023-05-21T03:54:25.763Z,100373.19
2023-05-21T03:56:56.653Z,100366.50
2023-05-21T03:59:25.163Z,100361.31
2023-05-21T04:01:52.864Z,100366.31
2023-05-21T04:04:20.330Z,100370.84
2023-05-21T04:06:48.509Z,100361.69
2023-05-21T04:09:16.646Z,100365.31
2023-05-21T04:11:44.058Z,100370.69
2023-05-21T04:14:11.572Z,100367.13
2023-05-21T04:16:39.054Z,100375.72
2023-05-21T04:19:06.917Z,100367.91
2023-05-21T04:21:34.352Z,100370.22
2023-05-21T04:24:01.871Z,100385.13
2023-05-21T04:26:44.633Z,100378.97
2023-05-21T04:29:12.050Z,100382.31
2023-05-21T04:31:39.523Z,100372.66
2023-05-21T04:34:07.070Z,100382.31
2023-05-21T04:36:34.613Z,100376.06
2023-05-21T04:39:02.527Z,100374.25
2023-05-21T04:41:29.996Z,100386.41
2023-05-21T04:44:03.436Z,100374.94
2023-05-21T04:46:33.067Z,100375.28
2023-05-21T04:49:04.872Z,100384.13
2023-05-21T04:51:32.350Z,100378.06
2023-05-21T04:53:59.719Z,100383.13
2023-05-21T04:56:27.339Z,100379.47
2023-05-21T04:58:54.873Z,100379.81
2023-05-21T05:01:23.735Z,100377.03
2023-05-21T05:03:51.588Z,100381.81
2023-05-21T05:06:19.104Z,100379.13
2023-05-21T05:08:47.181Z,100386.06
2023-05-21T05:11:16.031Z,100383.72
2023-05-21T05:13:43.609Z,100380.44
2023-05-21T05:16:11.341Z,100385.38
2023-05-21T05:18:38.870Z,100387.91
2023-05-21T05:21:06.402Z,100390.56
2023-05-21T05:23:33.881Z,100382.47
2023-05-21T05:26:01.292Z,100383.06
2023-05-21T05:28:28.821Z,100392.94
2023-05-21T05:30:56.252Z,100393.56
2023-05-21T05:33:25.681Z,100393.63
2023-05-21T05:35:54.060Z,100381.13
2023-05-21T05:38:22.180Z,100404.72
2023-05-21T05:40:49.682Z,100397.47
2023-05-21T05:43:17.140Z,100385.13
2023-05-21T05:45:44.850Z,100395.47
2023-05-21T05:48:14.787Z,100375.94
2023-05-21T05:50:42.452Z,100383.84
2023-05-21T05:53:09.985Z,100388.34
2023-05-21T05:55:37.598Z,100397.38
2023-05-21T05:58:05.827Z,100398.16
2023-05-21T06:00:39.850Z,100388.34
2023-05-21T06:03:07.552Z,100395.97
2023-05-21T06:05:35.444Z,100383.50
2023-05-21T06:08:03.199Z,100394.59
2023-05-21T06:10:30.869Z,100399.97
2023-05-21T06:12:58.326Z,100389.13
2023-05-21T06:15:25.872Z,100391.63
2023-05-21T06:17:53.370Z,100397.28
2023-05-21T06:20:21.236Z,100391.81
2023-05-21T06:22:48.751Z,100383.84
2023-05-21T06:25:16.716Z,100408.41
2023-05-21T06:27:47.410Z,100401.78
2023-05-21T06:30:37.094Z,100397.28
2023-05-21T06:33:05.057Z,100395.81
2023-05-21T06:35:34.936Z,100397.97
2023-05-21T06:38:03.161Z,100390.69
2023-05-21T06:40:30.941Z,100398.22
2023-05-21T06:43:00.012Z,100400.38
2023-05-21T06:45:39.910Z,100398.06
2023-05-21T06:48:28.826Z,100398.69
2023-05-21T06:50:56.495Z,100400.72
2023-05-21T06:53:23.938Z,100403.72
2023-05-21T06:55:53.949Z,100400.66
2023-05-21T06:58:36.970Z,100404.81
2023-05-21T07:01:05.175Z,100395.03
2023-05-21T07:03:32.715Z,100401.69
2023-05-21T07:06:00.379Z,100407.75
2023-05-21T07:08:27.954Z,100393.16
2023-05-21T07:10:56.441Z,100408.06
2023-05-21T07:13:24.128Z,100409.00
2023-05-21T07:15:51.691Z,100413.16
2023-05-21T07:18:19.262Z,100404.25
2023-05-21T07:20:46.779Z,100396.63
2023-05-21T07:23:16.336Z,100408.00
2023-05-21T07:25:44.748Z,100409.59
2023-05-21T07:28:13.946Z,100409.03
2023-05-21T07:30:41.627Z,100391.53
2023-05-21T07:33:14.625Z,100384.94
2023-05-21T07:35:42.667Z,100387.44
2023-05-21T07:38:10.199Z,100395.06
2023-05-21T07:40:37.829Z,100396.16
2023-05-21T07:43:05.523Z,100404.25
2023-05-21T07:45:34.748Z,100402.72
2023-05-21T07:48:02.879Z,100398.28
2023-05-21T07:50:32.371Z,100395.03
2023-05-21T07:53:00.728Z,100397.94
2023-05-21T07:55:28.230Z,100406.47
2023-05-21T07:57:56.358Z,100399.09
2023-05-21T08:00:28.734Z,100401.25
2023-05-21T08:02:58.164Z,100393.13
2023-05-21T08:05:26.587Z,100416.38
2023-05-21T08:07:54.084Z,100405.28
2023-05-21T08:10:22.383Z,100413.66
2023-05-21T08:12:51.738Z,100420.41
2023-05-21T08:15:20.572Z,100400.44
2023-05-21T08:17:48.059Z,100405.22
2023-05-21T08:20:16.476Z,100410.19
2023-05-21T08:22:46.117Z,100409.19
2023-05-21T08:25:14.036Z,100412.63
2023-05-21T08:27:42.832Z,100407.25
2023-05-21T08:30:11.729Z,100399.13
2023-05-21T08:32:39.462Z,100413.56
2023-05-21T08:35:08.441Z,100414.38
2023-05-21T08:37:58.839Z,100407.00
2023-05-21T08:40:41.591Z,100402.94
2023-05-21T08:43:13.869Z,100420.63
2023-05-21T08:45:57.452Z,100401.50
2023-05-21T08:48:27.902Z,100393.44
2023-05-21T08:50:55.661Z,100390.91
2023-05-21T08:53:29.003Z,100409.47
2023-05-21T08:55:57.826Z,100403.41
2023-05-21T08:58:34.075Z,100403.66
2023-05-21T09:01:04.657Z,100401.75
2023-05-21T09:03:33.147Z,100395.50
2023-05-21T09:06:01.060Z,100398.66
2023-05-21T09:08:36.103Z,100403.84
2023-05-21T09:11:11.909Z,100397.00
2023-05-21T09:13:49.962Z,100393.75
2023-05-21T09:16:24.636Z,100387.22
2023-05-21T09:18:52.436Z,100400.94
2023-05-21T09:21:26.173Z,100403.53
2023-05-21T09:23:57.795Z,100401.69
2023-05-21T09:26:26.800Z,100398.28
2023-05-21T09:29:00.412Z,100399.47
2023-05-21T09:31:30.079Z,100391.69
2023-05-21T09:33:58.562Z,100391.47
2023-05-21T09:36:27.109Z,100397.19
2023-05-21T09:38:54.528Z,100397.19
2023-05-21T09:41:32.261Z,100391.16
2023-05-21T09:44:01.240Z,100401.66
2023-05-21T09:46:37.982Z,100396.28
2023-05-21T09:49:05.375Z,100399.19
2023-05-21T09:51:33.103Z,100397.75
2023-05-21T09:54:01.234Z,100389.50
2023-05-21T09:56:30.817Z,100398.09
2023-05-21T09:59:01.383Z,100403.09
2023-05-21T10:01:31.396Z,100399.38
2023-05-21T10:04:00.745Z,100400.22
2023-05-21T10:06:31.114Z,100396.56
2023-05-21T10:09:04.740Z,100401.41
2023-05-21T10:11:34.750Z,100400.72
2023-05-21T10:14:07.258Z,100410.28
2023-05-21T10:16:36.302Z,100397.81
2023-05-21T10:19:05.226Z,100409.50
2023-05-21T10:21:33.585Z,100392.47
2023-05-21T10:24:02.243Z,100400.31
2023-05-21T10:26:30.276Z,100406.97
2023-05-21T10:29:00.611Z,100385.75
2023-05-21T10:31:28.807Z,100394.09
2023-05-21T10:33:56.516Z,100397.84
2023-05-21T10:36:31.853Z,100408.00
2023-05-21T10:39:00.698Z,100390.59
2023-05-21T10:41:34.124Z,100386.19
2023-05-21T10:44:26.600Z,100398.94
2023-05-21T10:46:56.946Z,100392.06
2023-05-21T10:49:54.340Z,100392.63
2023-05-21T10:52:38.681Z,100379.22
2023-05-21T10:55:17.747Z,100372.94
2023-05-21T10:58:22.219Z,100376.28
2023-05-21T11:00:50.629Z,100383.03
2023-05-21T11:03:18.754Z,100392.94
2023-05-21T11:05:54.132Z,100373.44
2023-05-21T11:08:31.943Z,100362.69
2023-05-21T11:10:59.541Z,100368.44
2023-05-21T11:13:28.684Z,100373.19
2023-05-21T11:15:59.422Z,100371.88
2023-05-21T11:18:36.322Z,100363.13
2023-05-21T11:21:10.596Z,100378.09
2023-05-21T11:24:19.199Z,100361.28
2023-05-21T11:26:50.197Z,100371.91
2023-05-21T11:29:18.249Z,100360.41
2023-05-21T11:31:47.031Z,100364.16
2023-05-21T11:34:28.778Z,100360.00
2023-05-21T11:37:23.398Z,100360.41
2023-05-21T11:39:51.791Z,100351.97
2023-05-21T11:42:35.091Z,100358.72
2023-05-21T11:45:04.236Z,100356.97
2023-05-21T11:47:33.026Z,100340.19
2023-05-21T11:50:02.290Z,100336.72
2023-05-21T11:52:31.051Z,100356.53
2023-05-21T11:54:59.722Z,100355.25
2023-05-21T11:57:31.892Z,100349.25
2023-05-21T12:00:02.252Z,100343.63
2023-05-21T12:02:45.431Z,100353.09
2023-05-21T12:05:13.384Z,100337.31
2023-05-21T12:07:40.854Z,100348.91
2023-05-21T12:10:08.847Z,100343.00
2023-05-21T12:12:46.079Z,100345.06
2023-05-21T12:15:17.943Z,100346.19
2023-05-21T12:17:49.474Z,100341.06
2023-05-21T12:20:17.233Z,100340.00
2023-05-21T12:22:44.920Z,100344.16
2023-05-21T12:25:12.353Z,100330.66
2023-05-21T12:27:42.134Z,100337.47
2023-05-21T12:30:09.859Z,100333.72
2023-05-21T12:32:43.785Z,100339.19
2023-05-21T12:35:21.606Z,100338.69
2023-05-21T12:37:50.796Z,100325.34
2023-05-21T12:40:19.742Z,100335.38
2023-05-21T12:42:47.330Z,100332.06
2023-05-21T12:45:14.836Z,100332.69
2023-05-21T12:47:49.040Z,100327.06
2023-05-21T12:50:21.201Z,100331.13
2023-05-21T12:52:48.662Z,100334.66
2023-05-21T12:55:17.287Z,100325.47
2023-05-21T12:57:44.650Z,100330.34
2023-05-21T13:00:12.674Z,100324.72
2023-05-21T13:02:42.139Z,100331.53
2023-05-21T13:05:19.625Z,100325.25
2023-05-21T13:07:47.843Z,100328.19
2023-05-21T13:10:18.844Z,100315.13
2023-05-21T13:12:46.749Z,100315.00
2023-05-21T13:15:15.102Z,100323.09
2023-05-21T13:17:42.615Z,100311.81
2023-05-21T13:20:17.663Z,100316.53
2023-05-21T13:22:51.869Z,100320.34
2023-05-21T13:25:25.166Z,100311.13
2023-05-21T13:27:53.215Z,100318.78
2023-05-21T13:30:21.942Z,100311.25
2023-05-21T13:32:49.601Z,100306.28
2023-05-21T13:35:17.620Z,100317.31
2023-05-21T13:37:45.532Z,100305.69
2023-05-21T13:40:15.165Z,100312.00
2023-05-21T13:42:45.123Z,100297.19
2023-05-21T13:45:15.536Z,100306.13
2023-05-21T13:47:44.451Z,100296.66
2023-05-21T13:50:12.217Z,100313.63
2023-05-21T13:52:39.977Z,100320.88
2023-05-21T13:55:08.014Z,100307.81
2023-05-21T13:57:35.406Z,100310.25
2023-05-21T14:00:03.621Z,100309.28
2023-05-21T14:02:35.351Z,100309.25
2023-05-21T14:05:02.811Z,100307.66
2023-05-21T14:07:30.228Z,100292.13
2023-05-21T14:09:58.194Z,100312.50
2023-05-21T14:12:26.717Z,100312.66
2023-05-21T14:14:54.148Z,100309.66
2023-05-21T14:17:21.527Z,100303.47
2023-05-21T14:19:48.978Z,100306.25
2023-05-21T14:22:16.395Z,100303.78
2023-05-21T14:24:43.842Z,100314.78
2023-05-21T14:27:13.121Z,100308.69
2023-05-21T14:29:42.294Z,100308.81
2023-05-21T14:32:10.261Z,100302.03
2023-05-21T14:34:39.169Z,100301.50
2023-05-21T14:37:06.525Z,100297.91
2023-05-21T14:39:33.946Z,100290.56
2023-05-21T14:42:03.543Z,100303.03
2023-05-21T14:44:31.108Z,100296.63
2023-05-21T14:46:58.433Z,100291.81
2023-05-21T14:49:25.770Z,100296.13
2023-05-21T14:51:53.177Z,100300.72
2023-05-21T14:54:20.549Z,100296.56
2023-05-21T14:56:47.901Z,100300.16
2023-05-21T14:59:15.437Z,100291.38
2023-05-21T15:01:43.251Z,100299.31
2023-05-21T15:04:10.820Z,100301.91
2023-05-21T15:06:38.426Z,100297.72
2023-05-21T15:09:05.842Z,100300.63
2023-05-21T15:11:34.143Z,100294.75
2023-05-21T15:14:02.273Z,100292.06
2023-05-21T15:16:29.693Z,100286.59
2023-05-21T15:18:57.125Z,100281.69
2023-05-21T15:21:27.228Z,100288.81
2023-05-21T15:23:55.501Z,100283.75
2023-05-21T15:26:25.383Z,100287.72
2023-05-21T15:28:52.884Z,100286.28
2023-05-21T15:31:24.485Z,100293.19
2023-05-21T15:33:52.199Z,100266.31
2023-05-21T15:36:19.514Z,100278.31
2023-05-21T15:38:50.267Z,100276.84
2023-05-21T15:41:18.105Z,100281.72
2023-05-21T15:43:46.360Z,100284.19
2023-05-21T15:46:13.904Z,100270.88
2023-05-21T15:48:41.255Z,100290.13
2023-05-21T15:51:08.857Z,100287.97
2023-05-21T15:53:36.197Z,100278.69
2023-05-21T15:56:03.835Z,100272.25
2023-05-21T15:58:32.141Z,100274.13
2023-05-21T16:00:59.675Z,100271.91
2023-05-21T16:03:27.260Z,100280.81
2023-05-21T16:05:57.079Z,100280.13
2023-05-21T16:08:27.606Z,100273.72
2023-05-21T16:10:54.987Z,100283.88
2023-05-21T16:13:26.159Z,100280.03
2023-05-21T16:15:53.645Z,100274.03
2023-05-21T16:18:21.936Z,100285.06
2023-05-21T16:20:49.322Z,100280.94
2023-05-21T16:23:17.451Z,100278.19
2023-05-21T16:25:48.604Z,100272.88
2023-05-21T16:28:16.167Z,100274.28
2023-05-21T16:30:43.724Z,100266.97
2023-05-21T16:33:12.361Z,100268.16
2023-05-21T16:35:39.726Z,100277.38
2023-05-21T16:38:07.001Z,100271.31
2023-05-21T16:40:34.464Z,100268.59
2023-05-21T16:43:02.371Z,100273.81
2023-05-21T16:45:55.201Z,100278.09
2023-05-21T16:48:22.581Z,100274.91
2023-05-21T16:50:50.085Z,100277.38
2023-05-21T16:53:17.416Z,100268.50
2023-05-21T16:55:44.878Z,100276.53
2023-05-21T16:58:13.607Z,100281.97
2023-05-21T17:00:40.925Z,100274.38
2023-05-21T17:03:08.579Z,100272.66
2023-05-21T17:05:36.168Z,100275.78
2023-05-21T17:08:03.948Z,100269.91
2023-05-21T17:10:34.123Z,100268.22
2023-05-21T17:13:09.760Z,100266.91
2023-05-21T17:15:45.647Z,100276.94
2023-05-21T17:18:13.095Z,100276.78
2023-05-21T17:20:40.475Z,100286.81
2023-05-21T17:23:07.862Z,100287.97
2023-05-21T17:25:35.741Z,100281.09
2023-05-21T17:28:03.324Z,100287.25
2023-05-21T17:30:30.742Z,100275.34
2023-05-21T17:32:58.446Z,100292.97
2023-05-21T17:35:26.001Z,100289.97
2023-05-21T17:37:53.695Z,100301.72
2023-05-21T17:40:23.750Z,100289.47
2023-05-21T17:42:52.109Z,100301.28
2023-05-21T17:45:19.693Z,100306.81
2023-05-21T17:47:47.272Z,100306.25
2023-05-21T17:50:15.530Z,100306.78
2023-05-21T17:52:42.932Z,100314.28
2023-05-21T17:55:10.650Z,100302.88
2023-05-21T17:57:38.073Z,100315.19
2023-05-21T18:00:06.985Z,100317.06
2023-05-21T18:02:40.201Z,100313.19
2023-05-21T18:05:07.932Z,100320.78
2023-05-21T18:07:37.097Z,100314.28
2023-05-21T18:10:04.795Z,100322.78
2023-05-21T18:12:32.150Z,100325.88
2023-05-21T18:14:59.546Z,100318.13
2023-05-21T18:17:26.922Z,100320.72
2023-05-21T18:19:54.291Z,100327.28
2023-05-21T18:22:21.652Z,100318.25
2023-05-21T18:24:49.026Z,100324.63
2023-05-21T18:27:16.390Z,100325.66
2023-05-21T18:29:43.732Z,100326.47
2023-05-21T18:32:15.371Z,100328.75
2023-05-21T18:34:47.814Z,100330.91
2023-05-21T18:37:18.728Z,100336.59
2023-05-21T18:39:51.222Z,100342.97
2023-05-21T18:42:21.598Z,100342.56
2023-05-21T18:44:51.377Z,100345.91
2023-05-21T18:47:19.016Z,100346.56
2023-05-21T18:49:46.349Z,100356.09
2023-05-21T18:52:14.008Z,100359.59
2023-05-21T18:54:41.415Z,100360.03
2023-05-21T18:57:08.770Z,100358.09
2023-05-21T18:59:36.481Z,100360.19
2023-05-21T19:02:04.869Z,100367.00
2023-05-21T19:04:32.324Z,100369.38
2023-05-21T19:06:59.757Z,100383.19
2023-05-21T19:09:27.097Z,100378.66
2023-05-21T19:11:57.270Z,100384.59
2023-05-21T19:14:24.659Z,100396.44
2023-05-21T19:16:52.086Z,100397.56
2023-05-21T19:19:19.458Z,100400.50
2023-05-21T19:21:55.127Z,100402.75
2023-05-21T19:24:28.948Z,100409.06
2023-05-21T19:26:56.305Z,100416.09
2023-05-21T19:29:24.179Z,100414.88
2023-05-21T19:31:54.961Z,100418.97
2023-05-21T19:34:23.373Z,100415.88
2023-05-21T19:36:53.671Z,100424.75
2023-05-21T19:39:22.122Z,100424.00
2023-05-21T19:41:53.543Z,100432.50
2023-05-21T19:44:21.037Z,100440.59
2023-05-21T19:46:50.126Z,100435.19
2023-05-21T19:49:19.881Z,100433.44
2023-05-21T19:51:49.302Z,100428.88
2023-05-21T19:54:18.002Z,100438.63
2023-05-21T19:56:45.387Z,100445.75
2023-05-21T19:59:16.318Z,100453.47
2023-05-21T20:01:44.636Z,100457.88
2023-05-21T20:04:12.367Z,100462.44
2023-05-21T20:06:43.033Z,100471.19
2023-05-21T20:09:13.278Z,100470.53
2023-05-21T20:11:42.326Z,100466.16
2023-05-21T20:14:09.793Z,100479.38
2023-05-21T20:16:37.912Z,100471.56
2023-05-21T20:19:05.867Z,100473.22
2023-05-21T20:21:33.645Z,100474.28
2023-05-21T20:24:01.289Z,100468.44
2023-05-21T20:26:28.726Z,100471.72
2023-05-21T20:28:56.192Z,100470.00
2023-05-21T20:31:25.376Z,100469.03
2023-05-21T20:33:53.837Z,100470.00
2023-05-21T20:36:21.451Z,100463.56
2023-05-21T20:38:48.905Z,100472.41
2023-05-21T20:41:16.828Z,100467.59
2023-05-21T20:43:45.357Z,100470.75
2023-05-21T20:46:13.091Z,100468.28
2023-05-21T20:48:41.856Z,100475.63
2023-05-21T20:51:09.315Z,100465.91
2023-05-21T20:53:37.198Z,100473.50
2023-05-21T20:56:08.186Z,100463.97
2023-05-21T20:58:40.110Z,100469.94
2023-05-21T21:01:07.797Z,100468.84
2023-05-21T21:03:35.323Z,100461.22
2023-05-21T21:06:04.359Z,100473.09
2023-05-21T21:08:31.889Z,100469.97
2023-05-21T21:11:00.077Z,100475.50
2023-05-21T21:13:27.507Z,100474.31
2023-05-21T21:15:55.123Z,100475.19
2023-05-21T21:18:22.670Z,100475.19
2023-05-21T21:20:50.391Z,100465.75
2023-05-21T21:23:17.967Z,100485.59
2023-05-21T21:25:45.447Z,100472.59
2023-05-21T21:31:17.611Z,100475.50
2023-05-21T21:33:45.101Z,100470.63
2023-05-21T21:36:12.993Z,100467.19
2023-05-21T21:38:40.408Z,100468.16
2023-05-21T21:41:07.870Z,100474.53
2023-05-21T21:43:35.656Z,100472.03
2023-05-21T21:46:03.044Z,100472.69
2023-05-21T21:48:30.554Z,100475.09
2023-05-21T21:50:58.468Z,100479.75
2023-05-21T21:53:25.929Z,100487.75
2023-05-21T21:55:53.502Z,100482.88
2023-05-21T21:58:20.851Z,100490.88
2023-05-21T22:00:48.210Z,100470.13
2023-05-21T22:03:16.614Z,100475.41
2023-05-21T22:05:44.212Z,100471.75
2023-05-21T22:08:11.734Z,100471.94
2023-05-21T22:10:39.533Z,100482.13
2023-05-21T22:13:07.534Z,100475.41
2023-05-21T22:15:35.209Z,100476.28
2023-05-21T22:18:03.206Z,100487.66
2023-05-21T22:20:30.785Z,100486.44
2023-05-21T22:22:58.560Z,100478.91
2023-05-21T22:25:26.280Z,100468.59
2023-05-21T22:27:53.705Z,100472.81
2023-05-21T22:30:21.311Z,100473.91
2023-05-21T22:32:48.774Z,100475.44
2023-05-21T22:35:16.240Z,100469.56
2023-05-21T22:37:43.631Z,100477.03
2023-05-21T22:40:11.210Z,100486.78
2023-05-21T22:42:39.032Z,100476.19
2023-05-21T22:45:07.453Z,100485.16
2023-05-21T22:47:37.305Z,100491.22
2023-05-21T22:50:06.720Z,100487.75
2023-05-21T22:52:38.275Z,100482.75
2023-05-21T22:55:06.339Z,100486.00
2023-05-21T22:57:33.662Z,100484.72
2023-05-21T23:00:01.065Z,100482.75
2023-05-21T23:02:29.256Z,100488.81
2023-05-21T23:04:58.169Z,100490.00
2023-05-21T23:07:25.846Z,100493.34
2023-05-21T23:09:53.207Z,100477.69
2023-05-21T23:12:20.961Z,100484.59
2023-05-21T23:14:48.411Z,100481.25
2023-05-21T23:17:19.747Z,100485.03
2023-05-21T23:19:52.425Z,100485.13
2023-05-21T23:22:20.059Z,100488.16
2023-05-21T23:24:48.318Z,100479.94
2023-05-21T23:27:15.818Z,100485.06
2023-05-21T23:29:43.200Z,100479.53
2023-05-21T23:32:10.763Z,100488.94
2023-05-21T23:34:39.869Z,100482.34
2023-05-21T23:37:07.321Z,100480.06
2023-05-21T23:39:34.726Z,100478.63
2023-05-21T23:42:05.929Z,100490.22
2023-05-21T23:44:33.357Z,100481.25
2023-05-21T23:47:00.674Z,100476.03
2023-05-21T23:49:28.751Z,100476.34
2023-05-21T23:51:56.393Z,100473.09
2023-05-21T23:54:23.741Z,100469.59
2023-05-21T23:56:51.871Z,100475.72
2023-05-21T23:59:19.504Z,100474.69
